Air Navigation Services of Czech Republic  
Last data update:  20.02.2019 01:20:07 UTC Česká verze
   METEO Page displayed:  20.02.2019 01:20:36 UTC  
help
METAR EDDB 200050Z 26008KT CAVOK 05/04 Q1017 NOSIG=
METAR EDDC 200050Z 25007KT 9999 BKN036 05/02 Q1019=
METAR EDDE 200050Z 25008KT 9999 FEW040 01/M01 Q1020=
METAR EDDF 200050Z VRB01KT CAVOK M01/M02 Q1023 NOSIG=
METAR EDDM 200050Z 27002KT 9999 OVC037 05/03 Q1022 NOSIG=
METAR EDDN 200050Z 11003KT 9000 NSC M00/M00 Q1022=
METAR EDDP 200050Z 24011KT CAVOK 04/01 Q1020 NOSIG=
METAR EDDT 200050Z 26007KT 9999 FEW020 05/03 Q1017=
METAR EDQM NIL
METAR EPBY 200100Z 27014KT 9999 SCT019 OVC044 06/02 Q1012 =
METAR EPGD 200100Z 27017G29KT 9999 BKN018 05/02 Q1008 =
METAR EPKK 200100Z 23009KT 6000 FEW013 BKN053 04/03 Q1017 =
METAR EPKT 200100Z 25007KT 6000 NSC 01/01 Q1017 =
METAR EPLL 200100Z 25011KT 9999 BKN029 05/03 Q1015 =
METAR EPPO 200100Z 27011KT 9999 FEW022 05/04 Q1015 R10/19//95 =
METAR EPRZ 200100Z 27008KT 9999 -RA BKN020 05/03 Q1016 =
METAR EPWA 200100Z 27010KT 9999 -RA FEW036 06/03 Q1013 TEMPO 5000 RA=
METAR EPWR 200100Z 28012KT 9999 FEW032 06/02 Q1017 =
METAR LHBP 200100Z VRB02KT 8000 NSC M02/M02 Q1019 NOSIG=
METAR LHSM NIL
METAR LKBC 200100Z AUTO 30003KT 260V340 CAVOK 02/M00 Q1020=
METAR LKCV 200100Z 24004KT CAVOK 04/01 Q1020 NOSIG RMK BLU BLU=
METAR LKKB 200100Z 21009KT CAVOK 02/M01 Q1020 RMK BLU=
METAR LKKU NIL
METAR LKKV 200100Z 26006KT 9999 FEW012 01/00 Q1020 RMK REG QNH 1019=
METAR LKLN 200100Z AUTO 22002KT 9000 00/00 Q1022=
METAR LKMT 200100Z 19006KT CAVOK 04/01 Q1019 NOSIG RMK REG QNH 1019=
METAR LKNA 200100Z 30008KT CAVOK 03/M01 Q1019 RMK BLU=
METAR LKPD 200100Z 27006KT CAVOK 04/M00 Q1020 RMK BLU=
METAR LKPR 200100Z 23011KT CAVOK 02/M00 Q1020 NOSIG RMK REG QNH 1019=
METAR LKTB 200100Z 28007KT CAVOK 04/00 Q1020 NOSIG RMK REG QNH 1019=
METAR LKVO NIL
METAR LOWI 200050Z AUTO 17004KT 9999 FEW090 OVC100 01/M02 Q1023=
METAR LOWL 200050Z AUTO 24004KT 7000 -SHRA FEW015 SCT040 BKN050 06/04 Q1022=
METAR LOWS 200050Z AUTO VRB01KT 9999 -SHRA FEW028 SCT034 BKN050 04/M00 Q1023=
METAR LOWW 200050Z 33007KT 9999 FEW044 BKN060 08/02 Q1020 NOSIG=
METAR LZIB 200100Z 31008KT CAVOK 09/01 Q1020=
METAR LZKZ 200100Z 02004KT 6000 NSC 00/M01 Q1017=
METAR LZMC NIL
METAR LZPP 200100Z AUTO 31004KT 250V340 4600 BR NCD M02/M03 Q1020=
METAR LZSL 200100Z 18001KT 9999 SCT046 M02/M03 Q1018=
METAR LZTT 200100Z 29004KT 240V040 9999 FEW060 SCT086 02/M02 Q1015=
METAR LZZI 200100Z VRB01KT 9000 FEW040 00/M01 Q1019=